Beaufort MCAS - Merritt Field
KNBC : now visible

Airfield :











YOU CAN JOIN US ON...

 
LOGIN :

Register | Disclaimer

   EN    FR    IT 

 









Legend :    VFR   Marginal VFR   IFR   Intensive IFR   Very Intensive IFR
Visi :
Ceiling :
>= 8 km
>= 3000ft
5 to 8 km
1000 to 3000 ft
1500m to 5 km
500 to 1000 ft
800 to 1500m
200 to 500 ft
< 800m
< 200 ft
Symbols :   Thunderstorms  Fog  Heavy snow  Heavy precipitations  Wind > 20 kt






- Airport Elevation : 37 ft


KNBC - Beaufort MCAS - Merritt Field

CURRENT METAR :
  • 020718Z AUTO 36003KT 10SM OVC004 13/12 A3015 RMK AO2 T01330122

EXPIRED METARs :
  • 020704Z AUTO 32007KT 10SM OVC003 13/12 A3016 RMK AO2 T01330122
  • 020656Z AUTO 32007KT 10SM OVC002 13/12 A3016 RMK AO2 RAE33 CIG 002V006 SLP214 P0001 T01330122
  • 020556Z AUTO 32004KT 8SM -RA OVC002 14/13 A3017 RMK AO2 RAB06 SLP217 P0000 60071 T01440133 10189 20144 58013
  • 020456Z AUTO 00000KT 10SM OVC006 15/14 A3018 RMK AO2 SLP221 T01500139 401890100
  • 020448Z AUTO 00000KT 10SM OVC006 15/14 A3018 RMK AO2 CIG 002V007 T01500139
  • 012100Z AUTO 13016G23KT 2SM +RA BR SCT007 BKN019 OVC030 18/17 A3022 RMK AO2 P0002 T01780167 $
  • 020356Z AUTO 33004KT 4SM BR OVC002 15/14 A3021 RMK AO2 SLP229 T01500144
  • 020332Z AUTO 31003KT 2 1/2SM BR OVC002 15/14 A3021 RMK AO2 T01500144
  • 020308Z AUTO 30003KT 8SM BKN002 OVC007 17/14 A3021 RMK AO2 T01670144
  • 020256Z AUTO 28004KT 10SM BKN004 OVC010 16/15 A3021 RMK AO2 RAE11 CIG 002V006 SLP230 P0020 60071 T01560150 51012
  • 020238Z AUTO 30007KT 10SM BKN004 OVC010 17/16 A3021 RMK AO2 RAE11 CIG 002V006 P0020 T01670156
  • 020228Z AUTO 30008KT 10SM OVC003 17/16 A3021 RMK AO2 RAE11 CIG 002V008 P0020 T01670161

TAF AMD TAF KNBC
Valid from the 01 at 23:00 until the 02 at 21:00 UTC


0123/0221 11011KT 8000 -RA BKN020 QNH3017INS
TEMPO 0123/0201 1600 +TSRA FEW005 BKN015CB OVC020
BECMG 0123/0201 VRB05KT 0400 -RA FG BKN020 OVC030 QNH3009INS WSCONDS
FM021000 VRB05KT 0400 -RA FG BKN005 QNH3009INS WSCONDS LAST NO AMDS AFT 0123 NEXT 0315 T14/0212Z T21/0220Z AMD 2345
KZJX FIR / North America



MET'MAP, your aeronautical weather chart ! - Copyright ORBIFLY December 2007 - Disclaimer

ORBIFLY MET'MAP TEAM :

Programming & Development : Alexandra Zaïnal
Original concept : Baudouin d'Aumeries
Technical & hardware support : Manuel Goepfert
Assistance : Marc-Olivier Méhu




SOURCES & CREDITS :

   NOAA       Earth
Advisory